Historyczne dane pomiarowe

Dodano dane terminowe – wersja testowa.

Dane z okresu 1951-2019

Wersja bazy: 1.34 [2019-03-16, lista zmian], aktualizacja planowana na 2019-04-15

Dane meteo z obszaru Polski uzyskane na podstawie danych udostępnionych przez Instytut Meteorologii i Gospodarki Wodnej – Państwowy Instytut Badawczy.

 

Wybierz Datę:    

       

TemperaturaWilgotnośćWiatrCiśnienieOpadyŚniegCzas trwania zjawisk
 Stacja t tx tn tng RH VA  wxwx mslp ppp RRR   cm mm wxwxwxwxwxwxwx
1983-08-14 12.8 18.6 8.2 4.2 77.5- 2.7 3.0---- 0.3------------
1983-08-13 13.4 17.8 11.5 10.9 89.0- 5.0 3.7---- 7.3------------
1983-08-12 17.5 23.0 10.2 6.0 76.3- 4.7 3.7---- 9.2------------
1983-08-11 20.0 27.0 11.5 7.7 72.3- 2.3 1.7---- 0.0------------
1983-08-10 19.1 26.8 10.3 6.3 70.3- 0.7 3.0---- 0.0------------
1983-08-09 18.7 25.5 11.8 7.9 72.0- 2.0 2.7---- 0.0------------
1983-08-08 20.1 26.1 12.7 10.9 74.0- 0.3 2.0---- 0.0------------
1983-08-07 18.9 24.1 14.3 10.9 87.0- 4.3 4.0---- 0.0------------
1983-08-06 17.8 23.0 11.0 8.1 79.3- 5.3 2.0---- 0.0------------
1983-08-05 15.0 16.4 13.5 12.9 88.5- 8.0 2.0---- 0.8------------
1983-08-04 18.1 24.0 14.7 15.8 93.5- 7.7 2.0---- 11.6------------
1983-08-03 21.4 27.6 17.0 16.4 69.5- 7.3 4.7---- 4.0------------
1983-08-02 21.2 29.0 15.7 11.9 65.5- 4.7 4.3---- 0.0------------
1983-08-01 21.4 28.6 12.7 7.4 55.8- 0.3 3.7---- 0.0------------
1983-07-31 17.7 24.2 12.3 10.4 75.3- 2.7 2.7---- 0.0------------
1983-07-30 15.7 18.2 14.2 14.9 90.0- 6.0 4.7---- 0.9------------
1983-07-29 17.6 22.0 14.9 11.7 77.8- 6.3 3.7---- 0.7------------
1983-07-28 19.7 24.6 17.6 16.1 75.5- 5.7 6.0---- 0.0------------
1983-07-27 19.6 28.5 11.4 8.4 66.8- 2.3 2.3---- 0.0------------
1983-07-26 20.4 26.6 15.7 13.9 77.3- 0.0 4.7---- 0.0------------
1983-07-25 16.1 20.4 11.8 8.7 83.3- 8.0 6.3---- 0.0------------
1983-07-24 16.5 21.4 11.8 8.4 76.3- 4.7 2.7---- 0.0------------
1983-07-23 16.1 21.2 11.8 11.1 85.5- 7.3 4.7---- 0.0------------
1983-07-22 13.5 18.9 9.2 7.9 78.3- 4.7 6.3---- 1.7------------
1983-07-21 12.9 17.9 7.8 6.4 71.8- 6.7 9.3---- 7.8------------
1983-07-20 12.5 16.0 10.0 7.9 77.5- 5.3 3.3---- 2.2------------
1983-07-19 19.1 20.6 15.7 15.8 82.0- 6.3 3.7---- 8.6------------
1983-07-18 19.3 29.2 7.8 4.0 71.0- 3.0 3.7---- 6.1------------
1983-07-17 17.7 23.2 11.8 5.9 68.8- 1.0 2.7---- 0.0------------
1983-07-16 18.8 24.4 13.0 7.9 75.3- 4.7 4.7---- 0.0------------
1983-07-15 17.7 26.0 9.0 3.2 73.0- 1.0 4.0---- 0.0------------
1983-07-14 18.4 22.4 15.4 12.1 76.0- 0.7 6.7---- 0.0------------
1983-07-13 19.4 26.6 13.1 9.4 86.0- 2.7 3.0---- 7.0------------
1983-07-12 20.7 27.1 14.1 10.4 78.8- 3.3 3.3---- 0.7------------
1983-07-11 20.4 26.7 14.1 9.4 74.0- 6.0 4.7---- 0.8------------
1983-07-10 21.4 28.5 13.4 10.4 71.3- 1.3 4.0---- 0.0------------
1983-07-09 19.3 26.6 11.8 7.7 70.3- 0.0 4.7---- 0.0------------
1983-07-08 17.3 24.9 8.8 3.8 71.8- 0.7 3.3---- 0.0------------
1983-07-07 17.0 23.1 8.8 3.3 63.8- 0.0 4.3---- 0.0------------
1983-07-06 17.4 24.4 9.8 5.5 71.0- 0.3 4.3---- 0.0------------
1983-07-05 16.2 21.8 9.7 5.3 77.0- 2.0 4.7---- 0.0------------
1983-07-04 17.1 21.7 12.9 8.4 79.3- 5.3 4.7---- 0.0------------
1983-07-03 16.5 23.4 6.3 3.4 69.8- 2.7 2.7---- 0.0------------
1983-07-02 16.1 23.3 13.2 11.9 77.3- 3.7 3.7---- 3.8------------
1983-07-01 20.6 26.5 13.2 10.4 61.8- 2.0 3.3---- 0.3------------
1983-06-30 18.3 24.2 11.8 8.7 57.0- 3.3 3.7---- 0.0------------
1983-06-29 14.5 19.4 8.8 4.5 61.5- 3.3 4.0---- 0.0------------
1983-06-28 14.2 17.9 11.6 11.2 83.3- 6.3 1.7---- 0.3------------
1983-06-27 15.6 23.4 9.0 5.9 87.8- 7.3 2.0---- 4.5------------
1983-06-26 16.2 22.1 9.0 3.0 75.3- 1.0 3.7---- 0.5------------
1983-06-25 16.8 24.5 9.0 3.8 71.5- 3.0 3.7---- 1.3------------
1983-06-24 16.4 24.4 5.1 -0.5 56.8- 0.0 3.3---- 0.0------------
1983-06-23 13.3 20.6 2.3 -2.5 57.8- 0.0 3.0---- 0.0------------
1983-06-22 10.8 16.4 1.5 -3.5 63.8- 0.0 2.7---- 0.0------------
1983-06-21 12.8 20.0 7.3 1.5 79.0- 2.3 6.3---- 0.0------------
1983-06-20 16.3 22.9 7.1 1.6 66.0- 0.3 4.0---- 0.0------------
1983-06-19 16.6 20.6 13.3 12.2 79.0- 4.0 4.0---- 0.0------------
1983-06-18 13.4 15.9 10.8 10.2 89.5- 8.0 4.7---- 0.0------------
1983-06-17 13.4 18.4 9.3 8.3 82.0- 4.7 5.3---- 0.0------------
1983-06-16 12.5 14.0 11.4 10.9 86.3- 7.7 8.7---- 7.5------------
1134.4 ms

 

Źródłem pochodzenia danych jest Instytut Meteorologii i Gospodarki Wodnej – Państwowy Instytut Badawczy. Dane Instytutu Meteorologii i Gospodarki Wodnej – Państwowego Instytutu Badawczego zostały przetworzone.

Dane źródłowe można odnaleźć na stronie https://dane.imgw.pl